Time,TemperatureF,DewpointF,PressureIn,WindDirection,WindDirectionDegrees,WindSpeedMPH,WindSpeedGustMPH,Humidity,HourlyPrecipIn,Conditions,Clouds,dailyrainin,SoftwareType,DateUTC
2013-12-20 00:06:00,8.7,5.0,25.13,NW,320,6.0,8.0,84,0.00,,,0.00,weatherlink.com 1.10,2013-12-20 07:06:00,
2013-12-20 00:21:00,8.7,5.0,25.12,NW,312,7.0,10.0,85,0.00,,,0.00,weatherlink.com 1.10,2013-12-20 07:21:00,
2013-12-20 00:36:00,8.5,5.0,25.11,NNE,20,4.0,7.0,85,0.00,,,0.00,weatherlink.com 1.10,2013-12-20 07:36:00,
2013-12-20 00:51:00,8.4,5.0,25.10,NW,323,2.0,7.0,85,0.00,,,0.00,weatherlink.com 1.10,2013-12-20 07:51:00,
2013-12-20 01:06:00,8.4,5.0,25.09,NW,321,6.0,9.0,85,0.00,,,0.00,weatherlink.com 1.10,2013-12-20 08:06:00,
2013-12-20 01:21:00,8.4,5.0,25.10,North,356,4.0,7.0,85,0.00,,,0.00,weatherlink.com 1.10,2013-12-20 08:21:00,
2013-12-20 01:36:00,-999.0,-99.9,25.10,North,-999,-999.0,-999.0,-999,0.00,,,0.00,weatherlink.com 1.10,2013-12-20 08:36:00,
2013-12-20 01:51:00,-999.0,-99.9,25.11,North,-999,-999.0,-999.0,-999,0.00,,,0.00,weatherlink.com 1.10,2013-12-20 08:51:00,
2013-12-20 02:07:00,-999.0,-99.9,25.10,North,-999,-999.0,-999.0,-999,0.00,,,0.00,weatherlink.com 1.10,2013-12-20 09:07:00,
2013-12-20 02:21:00,-999.0,-99.9,25.10,North,-999,-999.0,-999.0,-999,0.00,,,0.00,weatherlink.com 1.10,2013-12-20 09:21:00,
2013-12-20 02:37:00,-999.0,-99.9,25.10,North,-999,-999.0,-999.0,-999,0.00,,,0.00,weatherlink.com 1.10,2013-12-20 09:37:00,
2013-12-20 03:07:00,-999.0,-99.9,25.10,North,-999,-999.0,-999.0,-999,0.00,,,0.00,weatherlink.com 1.10,2013-12-20 10:07:00,
2013-12-20 03:22:00,-999.0,-99.9,25.09,North,-999,-999.0,-999.0,-999,0.00,,,0.00,weatherlink.com 1.10,2013-12-20 10:22:00,
2013-12-20 03:37:00,-999.0,-99.9,25.09,North,-999,-999.0,-999.0,-999,0.00,,,0.00,weatherlink.com 1.10,2013-12-20 10:37:00,
2013-12-20 03:52:00,-999.0,-99.9,25.09,North,-999,-999.0,-999.0,-999,0.00,,,0.00,weatherlink.com 1.10,2013-12-20 10:52:00,
2013-12-20 04:07:00,-999.0,-99.9,25.08,North,-999,-999.0,-999.0,-999,0.00,,,0.00,weatherlink.com 1.10,2013-12-20 11:07:00,
2013-12-20 04:22:00,-999.0,-99.9,25.08,North,-999,-999.0,-999.0,-999,0.00,,,0.00,weatherlink.com 1.10,2013-12-20 11:22:00,
2013-12-20 04:37:00,-999.0,-99.9,25.08,North,-999,-999.0,-999.0,-999,0.00,,,0.00,weatherlink.com 1.10,2013-12-20 11:37:00,
2013-12-20 04:52:00,-999.0,-99.9,25.08,North,-999,-999.0,-999.0,-999,0.00,,,0.00,weatherlink.com 1.10,2013-12-20 11:52:00,
2013-12-20 05:07:00,-999.0,-99.9,25.08,North,-999,-999.0,-999.0,-999,0.00,,,0.00,weatherlink.com 1.10,2013-12-20 12:07:00,
2013-12-20 05:22:00,-999.0,-99.9,25.08,North,-999,-999.0,-999.0,-999,0.00,,,0.00,weatherlink.com 1.10,2013-12-20 12:22:00,
2013-12-20 05:37:00,-999.0,-99.9,25.07,North,-999,-999.0,-999.0,-999,0.00,,,0.00,weatherlink.com 1.10,2013-12-20 12:37:00,
2013-12-20 05:53:00,-999.0,-99.9,25.07,North,-999,-999.0,-999.0,-999,0.00,,,0.00,weatherlink.com 1.10,2013-12-20 12:53:00,
2013-12-20 06:08:00,-999.0,-99.9,25.06,North,-999,-999.0,-999.0,-999,0.00,,,0.00,weatherlink.com 1.10,2013-12-20 13:08:00,
2013-12-20 06:23:00,-999.0,-99.9,25.05,North,-999,-999.0,-999.0,-999,0.00,,,0.00,weatherlink.com 1.10,2013-12-20 13:23:00,
2013-12-20 06:38:00,-999.0,-99.9,25.05,North,-999,-999.0,-999.0,-999,0.00,,,0.00,weatherlink.com 1.10,2013-12-20 13:38:00,
2013-12-20 06:53:00,-999.0,-99.9,25.05,North,-999,-999.0,-999.0,-999,0.00,,,0.00,weatherlink.com 1.10,2013-12-20 13:53:00,
2013-12-20 07:08:00,-999.0,-99.9,25.05,North,-999,-999.0,-999.0,-999,0.00,,,0.00,weatherlink.com 1.10,2013-12-20 14:08:00,
2013-12-20 07:23:00,-999.0,-99.9,25.05,North,-999,-999.0,-999.0,-999,0.00,,,0.00,weatherlink.com 1.10,2013-12-20 14:23:00,
2013-12-20 07:38:00,-999.0,-99.9,25.05,North,-999,-999.0,-999.0,-999,0.00,,,0.00,weatherlink.com 1.10,2013-12-20 14:38:00,
2013-12-20 07:53:00,-999.0,-99.9,25.04,North,-999,-999.0,-999.0,-999,0.00,,,0.00,weatherlink.com 1.10,2013-12-20 14:53:00,
2013-12-20 08:08:00,13.4,9.0,25.04,WSW,238,1.0,3.0,82,0.00,,,0.00,weatherlink.com 1.10,2013-12-20 15:08:00,
2013-12-20 08:23:00,13.9,9.0,25.03,West,265,0.0,1.0,82,0.00,,,0.00,weatherlink.com 1.10,2013-12-20 15:23:00,
2013-12-20 08:38:00,14.5,10.0,25.03,WSW,256,3.0,4.0,82,0.00,,,0.00,weatherlink.com 1.10,2013-12-20 15:38:00,
2013-12-20 08:53:00,14.7,10.0,25.03,WNW,298,2.0,7.0,81,0.00,,,0.00,weatherlink.com 1.10,2013-12-20 15:53:00,
2013-12-20 09:08:00,16.4,12.0,25.03,WSW,255,1.0,5.0,83,0.00,,,0.00,weatherlink.com 1.10,2013-12-20 16:08:00,
2013-12-20 09:24:00,18.4,13.0,25.03,West,262,2.0,8.0,80,0.00,,,0.00,weatherlink.com 1.10,2013-12-20 16:24:00,
2013-12-20 09:39:00,18.8,13.0,25.03,WSW,252,5.0,10.0,78,0.00,,,0.00,weatherlink.com 1.10,2013-12-20 16:39:00,
2013-12-20 09:54:00,19.0,14.0,25.04,West,266,6.0,9.0,80,0.00,,,0.00,weatherlink.com 1.10,2013-12-20 16:54:00,
2013-12-20 10:09:00,19.6,14.0,25.03,West,267,10.0,12.0,80,0.00,,,0.00,weatherlink.com 1.10,2013-12-20 17:09:00,
2013-12-20 10:24:00,20.2,15.0,25.03,West,267,10.0,15.0,80,0.00,,,0.00,weatherlink.com 1.10,2013-12-20 17:24:00,
2013-12-20 10:39:00,21.1,15.0,25.02,SSW,207,8.0,13.0,78,0.00,,,0.00,weatherlink.com 1.10,2013-12-20 17:39:00,
2013-12-20 10:54:00,21.4,16.0,25.01,WSW,253,10.0,15.0,78,0.00,,,0.00,weatherlink.com 1.10,2013-12-20 17:54:00,
2013-12-20 11:09:00,22.0,16.0,25.00,WSW,243,11.0,14.0,79,0.00,,,0.00,weatherlink.com 1.10,2013-12-20 18:09:00,
2013-12-20 11:24:00,22.7,16.0,24.99,WSW,249,11.0,13.0,76,0.00,,,0.00,weatherlink.com 1.10,2013-12-20 18:24:00,
2013-12-20 11:39:00,23.6,17.0,24.98,SW,231,8.0,13.0,77,0.00,,,0.00,weatherlink.com 1.10,2013-12-20 18:39:00,
2013-12-20 11:54:00,24.4,18.0,24.97,WSW,242,5.0,11.0,76,0.00,,,0.00,weatherlink.com 1.10,2013-12-20 18:54:00,
2013-12-20 12:09:00,26.2,18.0,24.97,WSW,255,9.0,11.0,72,0.00,,,0.00,weatherlink.com 1.10,2013-12-20 19:09:00,
2013-12-20 12:24:00,27.6,18.0,24.96,WSW,248,8.0,10.0,67,0.00,,,0.00,weatherlink.com 1.10,2013-12-20 19:24:00,
2013-12-20 12:39:00,28.2,19.0,24.96,East,87,6.0,11.0,68,0.00,,,0.00,weatherlink.com 1.10,2013-12-20 19:39:00,
2013-12-20 12:55:00,28.4,19.0,24.95,SSW,210,7.0,9.0,67,0.00,,,0.00,weatherlink.com 1.10,2013-12-20 19:55:00,
2013-12-20 13:10:00,27.9,19.0,24.94,WSW,246,6.0,9.0,68,0.00,,,0.00,weatherlink.com 1.10,2013-12-20 20:10:00,
2013-12-20 13:25:00,28.4,18.0,24.93,West,274,4.0,8.0,66,0.00,,,0.00,weatherlink.com 1.10,2013-12-20 20:25:00,
2013-12-20 13:40:00,28.4,18.0,24.93,WSW,246,2.0,7.0,64,0.00,,,0.00,weatherlink.com 1.10,2013-12-20 20:40:00,
2013-12-20 13:55:00,29.7,18.0,24.93,WNW,303,3.0,6.0,63,0.00,,,0.00,weatherlink.com 1.10,2013-12-20 20:55:00,
2013-12-20 14:10:00,29.7,18.0,24.93,West,266,3.0,8.0,61,0.00,,,0.00,weatherlink.com 1.10,2013-12-20 21:10:00,
2013-12-20 14:25:00,31.4,18.0,24.93,West,271,4.0,10.0,59,0.00,,,0.00,weatherlink.com 1.10,2013-12-20 21:25:00,
2013-12-20 14:40:00,31.0,18.0,24.93,WSW,243,4.0,7.0,59,0.00,,,0.00,weatherlink.com 1.10,2013-12-20 21:40:00,
2013-12-20 14:55:00,30.6,18.0,24.93,WNW,294,2.0,10.0,60,0.00,,,0.00,weatherlink.com 1.10,2013-12-20 21:55:00,
2013-12-20 15:10:00,30.9,18.0,24.93,West,262,2.0,6.0,60,0.00,,,0.00,weatherlink.com 1.10,2013-12-20 22:10:00,
2013-12-20 15:40:00,30.1,18.0,24.93,West,281,3.0,5.0,61,0.00,,,0.00,weatherlink.com 1.10,2013-12-20 22:40:00,
2013-12-20 15:55:00,29.6,18.0,24.93,NW,321,3.0,5.0,63,0.00,,,0.00,weatherlink.com 1.10,2013-12-20 22:55:00,
2013-12-20 16:11:00,28.2,18.0,24.93,NW,314,1.0,4.0,65,0.00,,,0.00,weatherlink.com 1.10,2013-12-20 23:11:00,
2013-12-20 16:26:00,27.2,18.0,24.93,WNW,301,2.0,4.0,67,0.00,,,0.00,weatherlink.com 1.10,2013-12-20 23:26:00,
2013-12-20 16:41:00,26.5,18.0,24.93,NW,307,0.0,2.0,69,0.00,,,0.00,weatherlink.com 1.10,2013-12-20 23:41:00,
2013-12-20 16:56:00,26.1,18.0,24.93,WSW,240,0.0,2.0,71,0.00,,,0.00,weatherlink.com 1.10,2013-12-20 23:56:00,
2013-12-20 17:11:00,24.8,17.0,24.92,SW,235,0.0,0.0,72,0.00,,,0.00,weatherlink.com 1.10,2013-12-21 00:11:00,
2013-12-20 17:26:00,23.1,17.0,24.92,SW,233,0.0,0.0,76,0.00,,,0.00,weatherlink.com 1.10,2013-12-21 00:26:00,
2013-12-20 17:41:00,22.8,17.0,24.92,SSW,197,0.0,1.0,77,0.00,,,0.00,weatherlink.com 1.10,2013-12-21 00:41:00,
2013-12-20 17:56:00,21.4,16.0,24.92,NE,39,0.0,1.0,79,0.00,,,0.00,weatherlink.com 1.10,2013-12-21 00:56:00,
2013-12-20 18:11:00,22.5,16.0,24.93,West,269,0.0,3.0,76,0.00,,,0.00,weatherlink.com 1.10,2013-12-21 01:11:00,
2013-12-20 18:26:00,22.8,15.0,24.93,NW,310,2.0,3.0,71,0.00,,,0.00,weatherlink.com 1.10,2013-12-21 01:26:00,
2013-12-20 18:41:00,22.5,15.0,24.93,West,263,2.0,3.0,73,0.00,,,0.00,weatherlink.com 1.10,2013-12-21 01:41:00,
2013-12-20 18:56:00,23.4,15.0,24.93,WSW,253,2.0,4.0,70,0.00,,,0.00,weatherlink.com 1.10,2013-12-21 01:56:00,
2013-12-20 19:11:00,23.7,15.0,24.94,WSW,239,0.0,1.0,68,0.00,,,0.00,weatherlink.com 1.10,2013-12-21 02:11:00,
2013-12-20 19:26:00,23.4,14.0,24.94,SSW,210,2.0,3.0,68,0.00,,,0.00,weatherlink.com 1.10,2013-12-21 02:26:00,
2013-12-20 19:42:00,20.9,14.0,24.94,SSW,208,5.0,8.0,74,0.00,,,0.00,weatherlink.com 1.10,2013-12-21 02:42:00,
2013-12-20 19:57:00,19.1,13.0,24.93,SSW,195,6.0,8.0,77,0.00,,,0.00,weatherlink.com 1.10,2013-12-21 02:57:00,
2013-12-20 20:12:00,18.4,13.0,24.94,South,172,3.0,8.0,80,0.00,,,0.00,weatherlink.com 1.10,2013-12-21 03:12:00,
2013-12-20 20:27:00,18.4,14.0,24.93,SSE,159,5.0,12.0,81,0.00,,,0.00,weatherlink.com 1.10,2013-12-21 03:27:00,
2013-12-20 20:42:00,18.1,14.0,24.94,SW,235,3.0,7.0,82,0.00,,,0.00,weatherlink.com 1.10,2013-12-21 03:42:00,
2013-12-20 20:57:00,18.2,14.0,24.93,SW,228,6.0,8.0,83,0.00,,,0.00,weatherlink.com 1.10,2013-12-21 03:57:00,
2013-12-20 21:12:00,18.6,14.0,24.93,West,259,5.0,6.0,82,0.00,,,0.00,weatherlink.com 1.10,2013-12-21 04:12:00,
2013-12-20 21:27:00,18.4,14.0,24.93,SSW,207,4.0,4.0,82,0.00,,,0.00,weatherlink.com 1.10,2013-12-21 04:27:00,
2013-12-20 21:42:00,17.9,14.0,24.93,West,259,5.0,8.0,83,0.00,,,0.00,weatherlink.com 1.10,2013-12-21 04:42:00,
2013-12-20 21:57:00,17.3,13.0,24.93,SW,228,7.0,7.0,84,0.00,,,0.00,weatherlink.com 1.10,2013-12-21 04:57:00,
2013-12-20 22:12:00,17.1,13.0,24.93,WSW,256,4.0,9.0,84,0.00,,,0.00,weatherlink.com 1.10,2013-12-21 05:12:00,
2013-12-20 22:27:00,16.6,13.0,24.93,WNW,285,1.0,4.0,85,0.00,,,0.00,weatherlink.com 1.10,2013-12-21 05:27:00,
2013-12-20 22:42:00,16.5,13.0,24.92,WSW,256,7.0,10.0,85,0.00,,,0.00,weatherlink.com 1.10,2013-12-21 05:42:00,
2013-12-20 22:58:00,16.6,13.0,24.92,WSW,245,5.0,10.0,85,0.00,,,0.00,weatherlink.com 1.10,2013-12-21 05:58:00,
2013-12-20 23:13:00,16.7,13.0,24.91,WSW,253,6.0,8.0,86,0.00,,,0.00,weatherlink.com 1.10,2013-12-21 06:13:00,
2013-12-20 23:28:00,16.8,13.0,24.91,WSW,243,5.0,8.0,85,0.00,,,0.00,weatherlink.com 1.10,2013-12-21 06:28:00,
2013-12-20 23:43:00,16.1,12.0,24.90,WSW,254,6.0,8.0,85,0.00,,,0.00,weatherlink.com 1.10,2013-12-21 06:43:00,
2013-12-20 23:58:00,16.0,13.0,24.90,WSW,243,5.0,8.0,86,0.00,,,0.00,weatherlink.com 1.10,2013-12-21 06:58:00,